createdAt,value
2022-08-26T00:01:45.228Z,100815.56
2022-08-26T00:04:13.009Z,100809.84
2022-08-26T00:06:42.378Z,100807.63
2022-08-26T00:09:09.772Z,100812.38
2022-08-26T00:11:36.984Z,100815.22
2022-08-26T00:14:03.928Z,100809.34
2022-08-26T00:16:32.062Z,100813.53
2022-08-26T00:19:00.274Z,100808.50
2022-08-26T00:21:27.308Z,100808.31
2022-08-26T00:23:54.261Z,100810.66
2022-08-26T00:26:21.012Z,100826.66
2022-08-26T00:28:48.004Z,100819.59
2022-08-26T00:31:15.494Z,100821.63
2022-08-26T00:33:42.364Z,100816.69
2022-08-26T00:36:20.052Z,100817.66
2022-08-26T00:38:48.603Z,100823.22
2022-08-26T00:41:18.378Z,100809.72
2022-08-26T00:43:47.914Z,100811.06
2022-08-26T00:46:23.539Z,100817.69
2022-08-26T00:48:53.893Z,100811.16
2022-08-26T00:51:24.911Z,100811.06
2022-08-26T00:54:07.785Z,100795.63
2022-08-26T00:56:50.855Z,100802.69
2022-08-26T00:59:18.043Z,100802.50
2022-08-26T01:01:46.942Z,100807.41
2022-08-26T01:04:19.369Z,100809.91
2022-08-26T01:06:48.090Z,100809.69
2022-08-26T01:09:17.212Z,100811.84
2022-08-26T01:11:45.570Z,100811.16
2022-08-26T01:14:14.095Z,100805.28
2022-08-26T01:16:42.385Z,100805.66
2022-08-26T01:19:28.562Z,100815.56
2022-08-26T01:22:02.780Z,100814.53
2022-08-26T01:24:31.201Z,100811.47
2022-08-26T01:27:03.441Z,100818.47
2022-08-26T01:29:34.029Z,100826.00
2022-08-26T01:32:05.111Z,100814.91
2022-08-26T01:34:36.185Z,100820.97
2022-08-26T01:37:06.908Z,100820.63
2022-08-26T01:39:36.330Z,100830.00
2022-08-26T01:42:06.309Z,100825.13
2022-08-26T01:44:45.967Z,100827.88
2022-08-26T01:47:17.802Z,100835.72
2022-08-26T01:49:48.208Z,100844.13
2022-08-26T01:52:22.826Z,100844.09
2022-08-26T01:54:59.358Z,100843.53
2022-08-26T01:57:27.534Z,100847.22
2022-08-26T01:59:58.849Z,100846.38
2022-08-26T02:02:26.254Z,100852.28
2022-08-26T02:05:00.514Z,100859.09
2022-08-26T02:07:28.272Z,100870.72
2022-08-26T02:09:55.297Z,100873.09
2022-08-26T02:12:22.613Z,100874.44
2022-08-26T02:14:54.193Z,100870.41
2022-08-26T02:17:35.266Z,100876.47
2022-08-26T02:20:02.799Z,100882.41
2022-08-26T02:22:31.517Z,100886.66
2022-08-26T02:25:16.656Z,100885.16
2022-08-26T02:27:43.542Z,100883.81
2022-08-26T02:30:24.115Z,100894.78
2022-08-26T02:32:53.980Z,100883.03
2022-08-26T02:35:23.387Z,100883.34
2022-08-26T02:37:52.328Z,100892.63
2022-08-26T02:40:23.446Z,100888.13
2022-08-26T02:42:53.034Z,100881.97
2022-08-26T02:45:23.860Z,100893.84
2022-08-26T02:47:51.771Z,100895.75
2022-08-26T02:50:19.896Z,100890.84
2022-08-26T02:52:48.358Z,100895.63
2022-08-26T02:55:15.466Z,100887.63
2022-08-26T02:57:42.273Z,100885.47
2022-08-26T03:00:11.901Z,100883.47
2022-08-26T03:02:38.645Z,100889.22
2022-08-26T03:05:05.998Z,100891.53
2022-08-26T03:07:33.024Z,100898.19
2022-08-26T03:10:01.039Z,100902.97
2022-08-26T03:12:32.296Z,100896.13
2022-08-26T03:14:59.208Z,100895.16
2022-08-26T03:17:26.848Z,100893.00
2022-08-26T03:19:57.325Z,100893.44
2022-08-26T03:22:25.368Z,100899.50
2022-08-26T03:24:52.771Z,100891.06
2022-08-26T03:27:19.650Z,100891.91
2022-08-26T03:30:04.925Z,100896.66
2022-08-26T03:32:32.039Z,100893.91
2022-08-26T03:34:59.363Z,100892.28
2022-08-26T03:37:26.886Z,100883.28
2022-08-26T03:39:54.123Z,100883.97
2022-08-26T03:42:22.205Z,100890.03
2022-08-26T03:44:49.864Z,100894.56
2022-08-26T03:47:17.249Z,100892.47
2022-08-26T03:49:44.130Z,100893.19
2022-08-26T03:52:12.034Z,100901.56
2022-08-26T03:54:41.952Z,100906.75
2022-08-26T03:57:11.076Z,100903.47
2022-08-26T03:59:37.877Z,100898.22
2022-08-26T04:02:11.319Z,100896.97
2022-08-26T04:04:39.026Z,100897.06
2022-08-26T04:07:06.235Z,100905.72
2022-08-26T04:09:35.265Z,100901.81
2022-08-26T04:12:03.650Z,100900.97
2022-08-26T04:14:31.859Z,100904.03
2022-08-26T04:16:59.119Z,100912.53
2022-08-26T04:19:31.499Z,100908.84
2022-08-26T04:21:59.254Z,100914.91
2022-08-26T04:24:28.026Z,100912.78
2022-08-26T04:26:56.579Z,100912.41
2022-08-26T04:29:29.144Z,100916.88
2022-08-26T04:31:56.618Z,100917.75
2022-08-26T04:34:28.986Z,100919.75
2022-08-26T04:36:58.528Z,100919.44
2022-08-26T04:39:27.703Z,100924.94
2022-08-26T04:41:55.576Z,100921.28
2022-08-26T04:44:27.807Z,100924.78
2022-08-26T04:46:55.025Z,100919.78
2022-08-26T04:49:22.739Z,100919.31
2022-08-26T04:51:49.777Z,100927.78
2022-08-26T04:54:16.564Z,100926.78
2022-08-26T04:56:45.422Z,100923.66
2022-08-26T04:59:17.209Z,100928.22
2022-08-26T05:01:53.383Z,100929.47
2022-08-26T05:04:21.091Z,100935.88
2022-08-26T05:06:48.937Z,100932.81
2022-08-26T05:09:18.436Z,100935.63
2022-08-26T05:11:48.508Z,100934.59
2022-08-26T05:14:19.787Z,100927.78
2022-08-26T05:16:47.933Z,100935.75
2022-08-26T05:19:15.392Z,100935.63
2022-08-26T05:21:45.897Z,100937.81
2022-08-26T05:24:14.470Z,100941.03
2022-08-26T05:26:41.274Z,100939.34
2022-08-26T05:29:08.451Z,100940.78
2022-08-26T05:31:35.765Z,100943.22
2022-08-26T05:34:04.618Z,100949.50
2022-08-26T05:36:35.083Z,100950.28
2022-08-26T05:39:04.278Z,100949.25
2022-08-26T05:41:36.650Z,100962.91
2022-08-26T05:44:08.498Z,100955.28
2022-08-26T05:46:36.653Z,100955.13
2022-08-26T05:49:06.125Z,100954.28
2022-08-26T05:51:41.244Z,100954.06
2022-08-26T05:54:07.973Z,100953.38
2022-08-26T05:56:38.431Z,100950.38
2022-08-26T05:59:05.659Z,100958.28
2022-08-26T06:01:37.796Z,100964.34
2022-08-26T06:04:04.656Z,100967.66
2022-08-26T06:06:33.565Z,100976.50
2022-08-26T06:09:03.596Z,100975.50
2022-08-26T06:11:32.553Z,100968.84
2022-08-26T06:14:03.860Z,100967.97
2022-08-26T06:16:38.610Z,100959.53
2022-08-26T06:19:11.509Z,100959.84
2022-08-26T06:21:41.466Z,100966.75
2022-08-26T06:24:30.338Z,100968.81
2022-08-26T06:27:04.274Z,100969.06
2022-08-26T06:29:36.253Z,100966.56
2022-08-26T06:32:06.940Z,100970.53
2022-08-26T06:34:36.612Z,100968.13
2022-08-26T06:37:04.916Z,100965.66
2022-08-26T06:39:33.485Z,100967.31
2022-08-26T06:42:01.162Z,100969.69
2022-08-26T06:44:33.874Z,100967.78
2022-08-26T06:47:02.540Z,100967.31
2022-08-26T06:49:33.778Z,100972.44
2022-08-26T06:52:00.573Z,100971.41
2022-08-26T06:54:30.329Z,100974.66
2022-08-26T06:56:58.108Z,100976.03
2022-08-26T06:59:25.581Z,100972.97
2022-08-26T07:01:53.411Z,100971.28
2022-08-26T07:04:23.285Z,100974.56
2022-08-26T07:06:52.389Z,100975.94
2022-08-26T07:09:25.176Z,100981.06
2022-08-26T07:11:53.417Z,100985.91
2022-08-26T07:14:26.173Z,100975.84
2022-08-26T07:16:54.656Z,100975.88
2022-08-26T07:19:30.209Z,100982.97
2022-08-26T07:22:03.952Z,100985.13
2022-08-26T07:24:35.494Z,100978.44
2022-08-26T07:27:05.867Z,100973.88
2022-08-26T07:29:34.679Z,100970.75
2022-08-26T07:32:04.238Z,100977.03
2022-08-26T07:34:33.110Z,100973.47
2022-08-26T07:37:01.252Z,100977.16
2022-08-26T07:39:31.443Z,100969.47
2022-08-26T07:42:07.387Z,100976.41
2022-08-26T07:44:37.640Z,100982.28
2022-08-26T07:47:10.415Z,100979.81
2022-08-26T07:49:56.661Z,100978.56
2022-08-26T07:52:26.743Z,100977.50
2022-08-26T07:54:55.591Z,100976.97
2022-08-26T07:57:22.432Z,100974.47
2022-08-26T07:59:51.762Z,100975.22
2022-08-26T08:02:22.804Z,100979.59
2022-08-26T08:04:49.669Z,100972.09
2022-08-26T08:07:17.857Z,100975.25
2022-08-26T08:09:44.617Z,100980.03
2022-08-26T08:12:14.122Z,100975.06
2022-08-26T08:14:42.192Z,100971.63
2022-08-26T08:19:42.634Z,100980.38
2022-08-26T08:22:17.915Z,100984.13
2022-08-26T08:24:49.858Z,100979.06
2022-08-26T08:27:23.662Z,100971.38
2022-08-26T08:29:54.343Z,100970.66
2022-08-26T08:32:22.934Z,100975.47
2022-08-26T08:34:49.754Z,100983.72
2022-08-26T08:37:17.282Z,100981.28
2022-08-26T08:39:44.178Z,100979.53
2022-08-26T08:42:30.250Z,100976.75
2022-08-26T08:44:59.722Z,100977.28
2022-08-26T08:47:35.925Z,100981.16
2022-08-26T08:50:27.671Z,100984.50
2022-08-26T08:53:12.185Z,100982.63
2022-08-26T08:56:04.901Z,100982.88
2022-08-26T08:58:59.892Z,100997.19
2022-08-26T09:01:42.299Z,100988.56
2022-08-26T09:04:33.844Z,100986.97
2022-08-26T09:07:02.796Z,100987.88
2022-08-26T09:09:36.410Z,100992.56
2022-08-26T09:12:10.524Z,100987.41
2022-08-26T09:14:37.418Z,100989.19
2022-08-26T09:17:32.649Z,100989.03
2022-08-26T09:20:11.453Z,100988.66
2022-08-26T09:22:39.737Z,100993.16
2022-08-26T09:25:13.550Z,100983.91
2022-08-26T09:27:46.373Z,100984.91
2022-08-26T09:30:30.381Z,100986.28
2022-08-26T09:33:01.291Z,100980.63
2022-08-26T09:35:40.082Z,100985.44
2022-08-26T09:38:21.881Z,100988.63
2022-08-26T09:41:21.730Z,100980.06
2022-08-26T09:44:14.609Z,100976.03
2022-08-26T09:46:55.732Z,100977.78
2022-08-26T09:49:37.601Z,100971.41
2022-08-26T09:52:22.220Z,100969.28
2022-08-26T09:55:13.919Z,100975.38
2022-08-26T09:57:51.476Z,100968.47
2022-08-26T10:00:26.578Z,100969.19
2022-08-26T10:02:57.821Z,100973.78
2022-08-26T10:05:54.819Z,100971.31
2022-08-26T10:08:31.752Z,100977.38
2022-08-26T10:11:02.443Z,100973.16
2022-08-26T10:13:36.443Z,100973.69
2022-08-26T10:16:24.018Z,100972.56
2022-08-26T10:19:08.274Z,100976.53
2022-08-26T10:21:52.258Z,100973.06
2022-08-26T10:24:30.400Z,100974.38
2022-08-26T10:27:03.144Z,100974.22
2022-08-26T10:29:37.728Z,100977.34
2022-08-26T10:32:14.835Z,100978.63
2022-08-26T10:34:42.622Z,100985.72
2022-08-26T10:37:22.790Z,100980.13
2022-08-26T10:39:58.922Z,100978.38
2022-08-26T10:42:31.361Z,100981.78
2022-08-26T10:45:05.770Z,100984.59
2022-08-26T10:47:54.060Z,100980.00
2022-08-26T10:50:25.244Z,100976.53
2022-08-26T10:53:24.900Z,100980.97
2022-08-26T10:56:29.694Z,100989.16
2022-08-26T10:58:59.762Z,100978.81
2022-08-26T11:01:44.011Z,100982.88
2022-08-26T11:04:48.493Z,100976.81
2022-08-26T11:07:36.374Z,100984.00
2022-08-26T11:10:12.426Z,100979.00
2022-08-26T11:12:39.137Z,100978.56
2022-08-26T11:15:11.080Z,100977.09
2022-08-26T11:17:49.831Z,100978.06
2022-08-26T11:20:23.706Z,100977.97
2022-08-26T11:22:52.229Z,100981.56
2022-08-26T11:25:20.765Z,100986.69
2022-08-26T11:27:48.227Z,100986.03
2022-08-26T11:30:15.917Z,100982.91
2022-08-26T11:32:55.216Z,100978.59
2022-08-26T11:35:23.805Z,100976.09
2022-08-26T11:37:52.064Z,100979.84
2022-08-26T11:40:25.079Z,100980.19
2022-08-26T11:42:56.172Z,100974.06
2022-08-26T11:45:38.380Z,100973.50
2022-08-26T11:48:36.732Z,100975.38
2022-08-26T11:51:03.610Z,100975.91
2022-08-26T11:53:36.292Z,100973.78
2022-08-26T11:56:10.832Z,100976.78
2022-08-26T11:58:44.661Z,100974.00
2022-08-26T12:01:21.507Z,100972.59
2022-08-26T12:03:51.238Z,100973.25
2022-08-26T12:09:01.633Z,100960.03
2022-08-26T12:11:33.089Z,100967.66
2022-08-26T12:14:16.880Z,100981.88
2022-08-26T12:16:44.988Z,100986.66
2022-08-26T12:19:33.016Z,100985.44
2022-08-26T12:22:24.012Z,100990.34
2022-08-26T12:25:00.040Z,100989.47
2022-08-26T12:27:30.933Z,100990.75
2022-08-26T12:30:14.020Z,100991.44
2022-08-26T12:32:57.462Z,100993.38
2022-08-26T12:35:26.042Z,101001.22
2022-08-26T12:37:54.349Z,100996.53
2022-08-26T12:40:31.058Z,100990.50
2022-08-26T12:43:07.200Z,101001.81
2022-08-26T12:45:36.144Z,100992.66
2022-08-26T12:48:10.230Z,100994.63
2022-08-26T12:50:44.084Z,101001.66
2022-08-26T12:53:10.788Z,101000.00
2022-08-26T12:55:41.293Z,100996.09
2022-08-26T12:58:13.881Z,100996.13
2022-08-26T13:00:51.979Z,100993.59
2022-08-26T13:03:46.740Z,100996.00
2022-08-26T13:06:23.628Z,100988.69
2022-08-26T13:09:21.161Z,100989.81
2022-08-26T13:11:48.435Z,100987.09
2022-08-26T13:14:21.275Z,100989.31
2022-08-26T13:16:52.146Z,100992.81
2022-08-26T13:19:29.791Z,100990.22
2022-08-26T13:21:58.823Z,100991.09
2022-08-26T13:24:33.851Z,100991.88
2022-08-26T13:27:03.664Z,100990.19
2022-08-26T13:29:31.062Z,100989.25
2022-08-26T13:31:59.406Z,100993.59
2022-08-26T13:34:28.117Z,100990.78
2022-08-26T13:36:58.812Z,100989.53
2022-08-26T13:39:26.300Z,100985.44
2022-08-26T13:41:53.328Z,100983.38
2022-08-26T13:44:20.567Z,100988.72
2022-08-26T13:46:48.306Z,100976.59
2022-08-26T13:49:16.103Z,100974.38
2022-08-26T13:51:43.403Z,100972.88
2022-08-26T13:54:10.318Z,100976.31
2022-08-26T13:56:37.532Z,100970.81
2022-08-26T13:59:06.421Z,100976.94
2022-08-26T14:01:34.136Z,100967.47
2022-08-26T14:04:02.679Z,100974.13
2022-08-26T14:06:31.112Z,100960.50
2022-08-26T14:08:58.180Z,100964.75
2022-08-26T14:11:25.308Z,100962.97
2022-08-26T14:13:52.797Z,100963.06
2022-08-26T14:16:33.375Z,100953.78
2022-08-26T14:19:01.520Z,100957.47
2022-08-26T14:21:35.109Z,100954.78
2022-08-26T14:24:02.143Z,100951.75
2022-08-26T14:26:30.080Z,100951.84
2022-08-26T14:28:58.978Z,100955.44
2022-08-26T14:31:29.636Z,100953.16
2022-08-26T14:34:02.611Z,100949.53
2022-08-26T14:36:31.425Z,100954.28
2022-08-26T14:39:02.683Z,100945.69
2022-08-26T14:41:30.315Z,100944.94
2022-08-26T14:44:17.899Z,100945.03
2022-08-26T14:46:48.608Z,100944.94
2022-08-26T14:49:20.273Z,100948.50
2022-08-26T14:51:47.842Z,100945.13
2022-08-26T14:54:17.345Z,100945.88
2022-08-26T14:57:00.375Z,100951.41
2022-08-26T14:59:34.403Z,100942.63
2022-08-26T15:02:01.741Z,100942.72
2022-08-26T15:04:29.383Z,100940.81
2022-08-26T15:06:58.795Z,100943.63
2022-08-26T15:09:27.651Z,100944.78
2022-08-26T15:11:55.453Z,100939.06
2022-08-26T15:14:24.228Z,100942.53
2022-08-26T15:16:56.041Z,100946.44
2022-08-26T15:19:24.808Z,100930.59
2022-08-26T15:21:51.907Z,100933.47
2022-08-26T15:24:23.060Z,100936.25
2022-08-26T15:26:50.220Z,100934.47
2022-08-26T15:29:17.487Z,100932.22
2022-08-26T15:31:44.495Z,100928.88
2022-08-26T15:34:16.685Z,100923.75
2022-08-26T15:36:47.102Z,100924.13
2022-08-26T15:39:19.501Z,100931.03
2022-08-26T15:41:46.984Z,100923.19
2022-08-26T15:44:16.151Z,100933.28
2022-08-26T15:46:43.603Z,100934.19
2022-08-26T15:49:12.028Z,100930.38
2022-08-26T15:51:47.005Z,100932.09
2022-08-26T15:54:16.664Z,100933.56
2022-08-26T15:56:44.126Z,100932.09
2022-08-26T15:59:11.846Z,100921.66
2022-08-26T16:01:39.572Z,100918.06
2022-08-26T16:04:08.234Z,100921.53
2022-08-26T16:06:37.876Z,100927.13
2022-08-26T16:09:07.063Z,100932.91
2022-08-26T16:11:36.033Z,100935.56
2022-08-26T16:14:05.031Z,100931.59
2022-08-26T16:16:32.328Z,100923.78
2022-08-26T16:19:00.514Z,100927.53
2022-08-26T16:21:29.204Z,100925.25
2022-08-26T16:24:00.059Z,100920.06
2022-08-26T16:26:29.714Z,100925.97
2022-08-26T16:28:56.645Z,100921.28
2022-08-26T16:31:23.667Z,100927.47
2022-08-26T16:33:51.700Z,100925.72
2022-08-26T16:36:19.898Z,100928.47
2022-08-26T16:38:55.754Z,100928.00
2022-08-26T16:41:24.356Z,100929.75
2022-08-26T16:43:55.013Z,100933.66
2022-08-26T16:46:25.560Z,100939.88
2022-08-26T16:48:56.879Z,100945.47
2022-08-26T16:51:27.152Z,100945.72
2022-08-26T16:53:56.265Z,100948.41
2022-08-26T16:56:34.144Z,100949.22
2022-08-26T16:59:06.574Z,100955.22
2022-08-26T17:01:33.602Z,100950.69
2022-08-26T17:04:01.165Z,100954.72
2022-08-26T17:06:30.344Z,100950.53
2022-08-26T17:09:00.732Z,100948.38
2022-08-26T17:11:27.594Z,100946.88
2022-08-26T17:13:55.739Z,100944.47
2022-08-26T17:16:26.612Z,100949.13
2022-08-26T17:18:56.118Z,100947.09
2022-08-26T17:21:26.096Z,100954.06
2022-08-26T17:23:53.734Z,100954.63
2022-08-26T17:26:21.130Z,100951.06
2022-08-26T17:29:00.010Z,100948.19
2022-08-26T17:31:27.472Z,100944.69
2022-08-26T17:33:58.114Z,100946.00
2022-08-26T17:36:35.210Z,100942.16
2022-08-26T17:39:02.135Z,100939.13
2022-08-26T17:41:29.354Z,100945.22
2022-08-26T17:43:56.217Z,100942.81
2022-08-26T17:46:23.679Z,100946.56
2022-08-26T17:48:50.626Z,100945.56
2022-08-26T17:51:19.589Z,100941.75
2022-08-26T17:53:48.739Z,100944.28
2022-08-26T17:56:18.802Z,100941.75
2022-08-26T17:58:51.350Z,100941.63
2022-08-26T18:01:20.586Z,100945.22
2022-08-26T18:03:48.136Z,100937.59
2022-08-26T18:06:15.441Z,100944.94
2022-08-26T18:08:42.418Z,100940.38
2022-08-26T18:11:25.332Z,100946.56
2022-08-26T18:13:54.159Z,100945.28
2022-08-26T18:16:21.450Z,100946.31
2022-08-26T18:18:53.517Z,100949.22
2022-08-26T18:21:25.755Z,100944.81
2022-08-26T18:23:54.174Z,100944.16
2022-08-26T18:26:25.406Z,100951.72
2022-08-26T18:28:53.155Z,100943.19
2022-08-26T18:31:20.396Z,100951.44
2022-08-26T18:33:47.587Z,100960.78
2022-08-26T18:36:26.663Z,100954.56
2022-08-26T18:38:55.211Z,100945.97
2022-08-26T18:41:24.023Z,100944.59
2022-08-26T18:43:53.071Z,100946.84
2022-08-26T18:46:23.121Z,100952.22
2022-08-26T18:48:50.909Z,100952.22
2022-08-26T18:51:22.823Z,100960.31
2022-08-26T18:53:49.655Z,100959.59
2022-08-26T18:56:18.634Z,100961.97
2022-08-26T18:58:47.397Z,100965.88
2022-08-26T19:01:15.647Z,100965.38
2022-08-26T19:03:42.867Z,100976.53
2022-08-26T19:06:18.702Z,100968.91
2022-08-26T19:08:49.958Z,100967.09
2022-08-26T19:11:31.228Z,100976.03
2022-08-26T19:13:59.071Z,100975.88
2022-08-26T19:16:27.667Z,100980.75
2022-08-26T19:18:56.190Z,100981.28
2022-08-26T19:21:23.447Z,100978.22
2022-08-26T19:23:51.243Z,100980.94
2022-08-26T19:26:18.508Z,100982.94
2022-08-26T19:28:45.640Z,100984.66
2022-08-26T19:31:12.576Z,100987.66
2022-08-26T19:33:42.928Z,100990.72
2022-08-26T19:36:18.687Z,100992.59
2022-08-26T19:38:46.273Z,101001.53
2022-08-26T19:41:19.615Z,101000.50
2022-08-26T19:43:47.216Z,101004.38
2022-08-26T19:46:17.960Z,101007.75
2022-08-26T19:48:45.652Z,101007.59
2022-08-26T19:51:22.297Z,101006.91
2022-08-26T19:53:51.667Z,101011.66
2022-08-26T19:56:18.869Z,101019.75
2022-08-26T19:58:46.847Z,101015.38
2022-08-26T20:01:15.397Z,101020.41
2022-08-26T20:03:42.888Z,101016.19
2022-08-26T20:06:12.259Z,101018.03
2022-08-26T20:08:40.725Z,101017.56
2022-08-26T20:11:13.280Z,101020.41
2022-08-26T20:13:44.217Z,101020.25
2022-08-26T20:16:12.325Z,101024.09
2022-08-26T20:18:59.365Z,101029.84
2022-08-26T20:21:27.607Z,101012.16
2022-08-26T20:24:00.620Z,101020.09
2022-08-26T20:26:28.992Z,101026.69
2022-08-26T20:28:56.574Z,101025.28
2022-08-26T20:31:24.436Z,101033.06
2022-08-26T20:33:51.634Z,101030.53
2022-08-26T20:36:20.632Z,101037.94
2022-08-26T20:38:48.961Z,101029.38
2022-08-26T20:41:16.967Z,101033.59
2022-08-26T20:43:43.973Z,101027.84
2022-08-26T20:46:17.986Z,101030.06
2022-08-26T20:48:47.825Z,101030.06
2022-08-26T20:51:15.948Z,101038.63
2022-08-26T20:53:44.303Z,101038.31
2022-08-26T20:56:13.073Z,101045.72
2022-08-26T20:58:40.938Z,101043.03
2022-08-26T21:01:08.979Z,101044.38
2022-08-26T21:03:36.688Z,101045.72
2022-08-26T21:06:03.953Z,101047.41
2022-08-26T21:08:32.036Z,101040.16
2022-08-26T21:11:00.673Z,101041.00
2022-08-26T21:13:30.746Z,101028.69
2022-08-26T21:16:03.185Z,101030.53
2022-08-26T21:18:30.151Z,101027.19
2022-08-26T21:20:56.988Z,101033.75
2022-08-26T21:23:28.707Z,101041.66
2022-08-26T21:25:56.272Z,101038.13
2022-08-26T21:28:23.402Z,101041.00
2022-08-26T21:30:50.178Z,101041.84
2022-08-26T21:33:16.901Z,101044.03
2022-08-26T21:35:51.648Z,101040.16
2022-08-26T21:38:20.564Z,101044.03
2022-08-26T21:41:22.109Z,101048.06
2022-08-26T21:43:50.186Z,101048.56
2022-08-26T21:46:19.874Z,101050.09
2022-08-26T21:48:50.859Z,101046.06
2022-08-26T21:51:20.420Z,101045.03
2022-08-26T21:53:47.925Z,101051.78
2022-08-26T21:56:17.039Z,101053.81
2022-08-26T21:58:44.314Z,101047.06
2022-08-26T22:01:13.785Z,101054.16
2022-08-26T22:03:46.658Z,101049.44
2022-08-26T22:06:17.455Z,101048.56
2022-08-26T22:08:44.270Z,101054.31
2022-08-26T22:11:11.847Z,101059.03
2022-08-26T22:13:40.177Z,101059.19
2022-08-26T22:16:07.550Z,101061.22
2022-08-26T22:18:35.005Z,101058.66
2022-08-26T22:21:05.527Z,101064.28
2022-08-26T22:23:32.317Z,101065.28
2022-08-26T22:26:00.098Z,101058.84
2022-08-26T22:28:26.988Z,101062.94
2022-08-26T22:30:54.206Z,101064.59
2022-08-26T22:33:21.522Z,101057.84
2022-08-26T22:35:50.702Z,101061.56
2022-08-26T22:38:17.809Z,101064.59
2022-08-26T22:40:48.090Z,101063.91
2022-08-26T22:43:14.957Z,101067.44
2022-08-26T22:46:09.557Z,101061.56
2022-08-26T22:48:39.378Z,101059.84
2022-08-26T22:51:06.481Z,101062.25
2022-08-26T22:53:35.929Z,101063.91
2022-08-26T22:56:09.519Z,101062.25
2022-08-26T22:58:37.365Z,101062.25
2022-08-26T23:01:05.622Z,101057.16
2022-08-26T23:03:33.198Z,101052.94
2022-08-26T23:06:00.627Z,101054.81
2022-08-26T23:08:27.601Z,101057.81
2022-08-26T23:10:54.437Z,101062.19
2022-08-26T23:13:21.278Z,101063.41
2022-08-26T23:15:48.071Z,101079.09
2022-08-26T23:18:15.364Z,101075.19
2022-08-26T23:20:42.690Z,101067.28
2022-08-26T23:23:09.533Z,101065.94
2022-08-26T23:25:36.328Z,101069.66
2022-08-26T23:28:03.571Z,101070.63
2022-08-26T23:30:32.506Z,101062.06
2022-08-26T23:32:59.543Z,101071.47
2022-08-26T23:35:26.982Z,101069.13
2022-08-26T23:37:54.013Z,101065.59
2022-08-26T23:40:26.367Z,101069.47
2022-08-26T23:42:54.941Z,101069.78
2022-08-26T23:45:22.997Z,101065.59
2022-08-26T23:47:53.143Z,101072.84
2022-08-26T23:50:22.599Z,101073.34
2022-08-26T23:53:08.803Z,101066.94
2022-08-26T23:55:37.261Z,101071.13
2022-08-26T23:58:04.789Z,101063.03
